Time;durP1;ratioP1;P1;durP2;ratioP2;P2;SDS_P1;SDS_P2;PMS_P1;PMS_P2;Temp;Humidity;BMP_temperature;BMP_pressure;BME280_temperature;BME280_humidity;BME280_pressure;Samples;Min_cycle;Max_cycle;Signal;HPM_P1;HPM_P2
2023/08/25 00:01:34;;;;;;;5.80;2.90;;;;;;;22.23;45.73;100592.13;5033521;28;20045;-79
2023/08/25 00:04:03;;;;;;;4.75;3.08;;;;;;;22.20;45.54;100595.31;5030401;28;20045;-79
2023/08/25 00:06:31;;;;;;;6.05;3.00;;;;;;;22.20;45.70;100597.25;5032663;28;20134;-80
2023/08/25 00:08:58;;;;;;;4.90;2.90;;;;;;;22.19;45.58;100589.97;5032220;28;20048;-79
2023/08/25 00:11:26;;;;;;;4.05;2.78;;;;;;;22.18;45.95;100586.31;5031678;28;20041;-80
2023/08/25 00:13:54;;;;;;;4.80;2.78;;;;;;;22.17;45.45;100576.28;5046712;28;20048;-79
2023/08/25 00:16:22;;;;;;;6.45;3.00;;;;;;;22.14;45.53;100579.47;5040800;28;20408;-77
2023/08/25 00:18:52;;;;;;;5.75;3.22;;;;;;;22.13;45.68;100569.41;5031134;28;20084;-78
2023/08/25 00:21:19;;;;;;;5.60;3.22;;;;;;;22.07;45.80;100567.50;5040222;28;20567;-79
2023/08/25 00:23:47;;;;;;;5.45;2.97;;;;;;;22.05;45.64;100566.00;5038792;28;20047;-78
2023/08/25 00:26:15;;;;;;;6.47;3.25;;;;;;;22.02;45.66;100560.84;5039319;28;20045;-78
2023/08/25 00:28:43;;;;;;;5.60;3.90;;;;;;;21.98;46.00;100552.06;5031491;28;20029;-78
2023/08/25 00:31:11;;;;;;;6.93;4.70;;;;;;;21.97;45.95;100549.50;5041358;28;20857;-78
2023/08/25 00:33:48;;;;;;;6.43;4.30;;;;;;;21.99;46.64;100547.34;5031795;28;20041;-79
2023/08/25 00:36:18;;;;;;;7.35;4.60;;;;;;;21.94;45.96;100561.91;5042620;28;20065;-79
2023/08/25 00:38:46;;;;;;;7.40;5.10;;;;;;;21.90;46.38;100555.06;5054647;28;20481;-79
2023/08/25 00:41:14;;;;;;;5.90;4.30;;;;;;;21.89;46.08;100556.13;5053646;28;20431;-79
2023/08/25 00:43:42;;;;;;;7.43;4.93;;;;;;;21.85;46.20;100550.09;5037118;28;20048;-79
2023/08/25 00:46:11;;;;;;;6.72;5.00;;;;;;;21.84;46.06;100550.34;5032998;28;20167;-79
2023/08/25 00:48:39;;;;;;;7.30;4.75;;;;;;;21.83;46.27;100545.84;5023297;28;20424;-79
2023/08/25 00:51:09;;;;;;;7.47;4.65;;;;;;;21.82;46.50;100533.84;5041394;28;20645;-79
2023/08/25 00:53:39;;;;;;;7.72;4.93;;;;;;;21.82;46.31;100542.22;5036360;28;20052;-79
2023/08/25 00:56:08;;;;;;;7.35;5.05;;;;;;;21.79;46.27;100537.06;5034090;28;20132;-79
2023/08/25 00:58:36;;;;;;;6.15;4.47;;;;;;;21.79;46.33;100547.34;5032604;28;20064;-78
2023/08/25 01:01:05;;;;;;;7.28;4.63;;;;;;;21.78;46.14;100542.84;5026976;28;20053;-79
2023/08/25 01:03:36;;;;;;;6.95;4.35;;;;;;;21.79;46.14;100550.97;5024718;28;20406;-79
2023/08/25 01:06:04;;;;;;;6.40;4.28;;;;;;;21.78;46.24;100548.41;5030646;28;20038;-80
2023/08/25 01:08:33;;;;;;;6.05;4.00;;;;;;;21.79;46.32;100550.13;5030931;28;20041;-80
2023/08/25 01:11:15;;;;;;;8.40;4.53;;;;;;;21.81;46.82;100548.84;5028417;28;20103;-79
2023/08/25 01:13:51;;;;;;;6.88;4.57;;;;;;;21.80;46.60;100552.69;5030383;28;20129;-79
2023/08/25 01:16:30;;;;;;;6.07;4.05;;;;;;;21.81;46.66;100557.19;5034404;28;20033;-80
2023/08/25 01:19:01;;;;;;;5.35;4.32;;;;;;;21.80;46.52;100552.69;5030778;28;20045;-79
2023/08/25 01:21:30;;;;;;;8.40;4.63;;;;;;;21.78;46.38;100551.19;5021963;28;20045;-79
2023/08/25 01:24:09;;;;;;;8.43;4.57;;;;;;;21.81;46.44;100554.41;5023956;28;20148;-79
2023/08/25 01:26:39;;;;;;;7.38;4.88;;;;;;;21.79;46.45;100545.41;5037897;28;20037;-80
2023/08/25 01:29:07;;;;;;;7.15;4.32;;;;;;;21.77;46.32;100550.34;5033097;28;20138;-79
2023/08/25 01:31:35;;;;;;;5.80;4.80;;;;;;;21.76;46.34;100540.28;5058275;28;20044;-79
2023/08/25 01:34:03;;;;;;;6.68;4.38;;;;;;;21.75;46.27;100544.16;5039639;28;20053;-79
2023/08/25 01:36:37;;;;;;;6.90;4.63;;;;;;;21.77;46.49;100541.13;5039573;28;20034;-79
2023/08/25 01:39:08;;;;;;;5.78;4.28;;;;;;;21.73;46.29;100540.72;5031245;28;20037;-78
2023/08/25 01:41:44;;;;;;;6.80;4.20;;;;;;;21.72;46.72;100540.91;5027370;28;20196;-79
2023/08/25 01:44:15;;;;;;;7.10;4.10;;;;;;;21.70;46.29;100543.06;5030662;28;20045;-79
2023/08/25 01:46:45;;;;;;;5.82;3.88;;;;;;;21.68;46.42;100539.66;5023760;28;20179;-79
2023/08/25 01:49:14;;;;;;;6.35;3.78;;;;;;;21.68;46.41;100526.59;5016529;28;20045;-79
2023/08/25 01:51:43;;;;;;;5.22;3.60;;;;;;;21.67;46.67;100533.22;5024924;28;20034;-79
2023/08/25 01:54:13;;;;;;;6.88;4.40;;;;;;;21.66;46.61;100522.28;5031905;28;20042;-79
2023/08/25 01:56:42;;;;;;;6.85;4.13;;;;;;;21.66;46.20;100525.06;5027113;28;20041;-80
2023/08/25 01:59:10;;;;;;;6.22;4.28;;;;;;;21.61;46.42;100520.13;5026892;28;20140;-79
2023/08/25 02:01:38;;;;;;;6.97;4.15;;;;;;;21.59;46.34;100516.72;5031678;28;20102;-79
2023/08/25 02:04:06;;;;;;;4.53;3.40;;;;;;;21.57;46.51;100516.09;5043653;28;20041;-79
2023/08/25 02:06:35;;;;;;;6.45;3.53;;;;;;;21.55;46.38;100512.66;5027730;28;20538;-79
2023/08/25 02:09:04;;;;;;;6.35;3.97;;;;;;;21.54;46.48;100527.63;5035475;28;20048;-78
2023/08/25 02:11:32;;;;;;;4.90;3.08;;;;;;;21.52;46.44;100527.00;5052829;28;20121;-78
2023/08/25 02:14:01;;;;;;;5.22;3.35;;;;;;;21.51;46.57;100512.25;5035516;28;21025;-79
2023/08/25 02:16:29;;;;;;;5.90;3.65;;;;;;;21.47;46.73;100508.16;5027675;28;20107;-79
2023/08/25 02:18:57;;;;;;;5.05;3.30;;;;;;;21.46;46.40;100509.22;5019933;28;20059;-80
2023/08/25 02:21:25;;;;;;;5.68;3.58;;;;;;;21.44;46.36;100496.56;5022681;28;20041;-79
2023/08/25 02:23:55;;;;;;;5.70;3.50;;;;;;;21.44;46.42;100504.94;5030012;28;20034;-78
2023/08/25 02:26:23;;;;;;;5.15;3.30;;;;;;;21.41;46.46;100500.66;5031586;28;20064;-79
2023/08/25 02:28:51;;;;;;;5.32;3.00;;;;;;;21.39;46.50;100497.22;5020993;28;20092;-79
2023/08/25 02:31:20;;;;;;;4.40;3.03;;;;;;;21.41;46.42;100491.47;5022220;28;20044;-80
2023/08/25 02:33:49;;;;;;;7.20;3.60;;;;;;;21.38;46.86;100495.50;5017812;28;20052;-79
2023/08/25 02:36:18;;;;;;;4.95;2.78;;;;;;;21.38;46.46;100487.16;5009785;28;20417;-79
2023/08/25 02:38:46;;;;;;;5.45;2.90;;;;;;;21.38;46.89;100480.75;5018956;28;20045;-79
2023/08/25 02:41:16;;;;;;;4.50;3.22;;;;;;;21.37;46.69;100474.31;5031956;28;20402;-79
2023/08/25 02:43:44;;;;;;;4.65;3.00;;;;;;;21.37;46.66;100474.31;5014299;28;20128;-79
2023/08/25 02:46:13;;;;;;;5.40;3.05;;;;;;;21.35;46.58;100465.34;5034315;28;20037;-80
2023/08/25 02:48:42;;;;;;;5.90;3.03;;;;;;;21.35;46.44;100465.34;5016951;28;20069;-79
2023/08/25 02:51:10;;;;;;;4.72;3.22;;;;;;;21.33;46.60;100459.13;5016983;28;20123;-79
2023/08/25 02:53:38;;;;;;;5.22;3.10;;;;;;;21.31;46.56;100450.13;5022667;28;20112;-79
2023/08/25 02:56:06;;;;;;;6.25;3.50;;;;;;;21.29;46.64;100455.03;5028822;28;20053;-79
2023/08/25 02:58:34;;;;;;;4.47;3.40;;;;;;;21.26;46.47;100446.28;5031258;28;20045;-78
2023/08/25 03:01:10;;;;;;;5.05;3.17;;;;;;;21.24;46.21;100460.38;5028619;28;20042;-79
2023/08/25 03:03:41;;;;;;;5.68;3.30;;;;;;;21.21;46.65;100455.22;5029290;28;20509;-80
2023/08/25 03:06:09;;;;;;;5.50;2.97;;;;;;;21.21;46.56;100443.22;5042279;28;20125;-78
2023/08/25 03:08:37;;;;;;;4.72;2.70;;;;;;;21.17;46.71;100440.03;5022699;28;20056;-79
2023/08/25 03:11:05;;;;;;;4.68;2.92;;;;;;;21.17;46.70;100440.03;5028171;28;21367;-80
2023/08/25 03:13:33;;;;;;;4.45;3.17;;;;;;;21.15;46.90;100428.25;5024395;28;20038;-79
2023/08/25 03:16:02;;;;;;;4.68;2.80;;;;;;;21.14;46.45;100430.19;5033743;28;20098;-79
2023/08/25 03:18:31;;;;;;;4.10;2.80;;;;;;;21.12;46.64;100431.47;5036758;28;20098;-79
2023/08/25 03:21:01;;;;;;;4.97;2.80;;;;;;;21.13;46.64;100425.69;5041841;28;20045;-78
2023/08/25 03:23:29;;;;;;;4.07;2.70;;;;;;;21.12;46.41;100420.34;5056844;28;20056;-80
2023/08/25 03:25:58;;;;;;;4.57;2.70;;;;;;;21.13;46.79;100422.03;5036895;28;20087;-80
2023/08/25 03:28:26;;;;;;;4.43;2.47;;;;;;;21.12;46.94;100423.13;5034987;28;20128;-80
2023/08/25 03:30:53;;;;;;;4.72;2.97;;;;;;;21.14;46.71;100416.28;5033669;28;20037;-79
2023/08/25 03:33:24;;;;;;;4.78;3.03;;;;;;;21.13;46.86;100409.00;5027104;28;20041;-79
2023/08/25 03:35:52;;;;;;;4.18;2.33;;;;;;;21.15;46.65;100406.00;5033434;28;20028;-79
2023/08/25 03:38:21;;;;;;;4.88;2.97;;;;;;;21.17;46.51;100406.66;5034222;28;20451;-80
2023/08/25 03:40:58;;;;;;;5.13;2.60;;;;;;;21.18;46.61;100402.81;5031941;28;20041;-80
2023/08/25 03:43:26;;;;;;;4.13;2.55;;;;;;;21.14;46.64;100396.78;5032103;28;20044;-80
2023/08/25 03:45:54;;;;;;;3.72;2.42;;;;;;;21.15;46.63;100394.88;5030067;28;20056;-81
2023/08/25 03:48:22;;;;;;;3.97;2.53;;;;;;;21.14;46.15;100395.94;5022167;28;20079;-81
2023/08/25 03:50:49;;;;;;;3.70;2.42;;;;;;;21.14;46.71;100393.16;5011575;28;20037;-81
2023/08/25 03:53:18;;;;;;;4.18;2.80;;;;;;;21.13;46.58;100392.28;5027497;28;20034;-80
2023/08/25 03:55:47;;;;;;;4.57;2.22;;;;;;;21.15;46.21;100390.16;5032923;28;20072;-80
2023/08/25 03:58:17;;;;;;;4.88;2.58;;;;;;;21.14;46.53;100393.16;5019801;28;20057;-80
2023/08/25 04:00:51;;;;;;;3.40;2.22;;;;;;;21.17;46.38;100412.22;5014066;28;20220;-79
2023/08/25 04:03:19;;;;;;;4.47;2.60;;;;;;;21.13;46.36;100420.13;5017912;28;20080;-80
2023/08/25 04:05:47;;;;;;;3.42;2.25;;;;;;;21.13;46.27;100392.28;5014184;28;20093;-80
2023/08/25 04:08:15;;;;;;;3.47;2.10;;;;;;;21.13;46.40;100394.22;5021514;28;20046;-79
2023/08/25 04:10:44;;;;;;;5.57;2.50;;;;;;;21.12;46.49;100393.38;5036049;28;20041;-79
2023/08/25 04:13:13;;;;;;;3.63;2.10;;;;;;;21.14;46.60;100401.50;5038947;28;20053;-79
2023/08/25 04:15:41;;;;;;;3.85;2.22;;;;;;;21.11;46.38;100402.78;5031026;28;20037;-79
2023/08/25 04:18:09;;;;;;;3.35;2.20;;;;;;;21.12;46.23;100406.41;5023010;28;20122;-80
2023/08/25 04:20:37;;;;;;;3.53;2.22;;;;;;;21.11;46.63;100408.34;5032405;28;20045;-80
2023/08/25 04:23:05;;;;;;;4.55;2.30;;;;;;;21.11;46.46;100405.56;5058838;28;20056;-79
2023/08/25 04:25:33;;;;;;;3.88;2.22;;;;;;;21.14;46.69;100409.84;5035799;28;20038;-80
2023/08/25 04:28:01;;;;;;;3.55;2.10;;;;;;;21.14;46.53;100407.94;5036269;28;20046;-80
2023/08/25 04:30:31;;;;;;;4.07;2.05;;;;;;;21.18;46.26;100419.50;5044042;28;20042;-81
2023/08/25 04:33:04;;;;;;;3.72;2.10;;;;;;;21.18;46.55;100418.63;5031548;28;20047;-81
2023/08/25 04:35:32;;;;;;;5.15;2.28;;;;;;;21.18;46.28;100415.84;5034662;28;20096;-80
2023/08/25 04:38:00;;;;;;;4.00;2.20;;;;;;;21.21;46.25;100430.19;5035518;28;20052;-80
2023/08/25 04:40:28;;;;;;;3.58;2.17;;;;;;;21.21;46.26;100437.66;5040393;28;20115;-80
2023/08/25 04:42:56;;;;;;;3.92;2.13;;;;;;;21.22;46.72;100429.13;5039463;28;20057;-79
2023/08/25 04:45:24;;;;;;;4.70;2.40;;;;;;;21.25;46.45;100425.91;5042359;28;20089;-80
2023/08/25 04:47:54;;;;;;;5.15;2.20;;;;;;;21.28;46.35;100416.28;5032301;28;20900;-81
2023/08/25 04:50:25;;;;;;;4.32;2.35;;;;;;;21.26;46.41;100421.25;5044061;28;20038;-80
2023/08/25 04:52:53;;;;;;;3.67;2.15;;;;;;;21.28;46.39;100419.06;5032183;28;20030;-81
2023/08/25 04:55:21;;;;;;;4.07;2.33;;;;;;;21.29;46.40;100409.66;5045390;28;20102;-79
2023/08/25 04:57:50;;;;;;;4.00;2.22;;;;;;;21.29;46.49;100409.66;5041145;28;20455;-80
2023/08/25 05:00:18;;;;;;;3.45;2.15;;;;;;;21.30;46.38;100411.38;5031340;28;20049;-80
2023/08/25 05:02:49;;;;;;;3.55;2.40;;;;;;;21.32;46.42;100401.75;5025729;28;20041;-80
2023/08/25 05:05:20;;;;;;;;;;;;;;;21.01;47.03;100407.09;5042379;28;20072;-79
2023/08/25 05:07:48;;;;;;;3.42;2.33;;;;;;;21.24;46.40;100403.84;5043342;28;19928;-79
2023/08/25 05:10:16;;;;;;;3.85;2.30;;;;;;;21.29;46.16;100401.31;5046413;28;20152;-80
2023/08/25 05:12:45;;;;;;;4.07;2.42;;;;;;;21.28;46.55;100403.22;5030472;28;20042;-79
2023/08/25 05:15:13;;;;;;;4.50;2.58;;;;;;;21.26;46.30;100399.81;5025032;28;20069;-81
2023/08/25 05:17:41;;;;;;;4.00;2.38;;;;;;;21.25;46.34;100395.28;5016892;28;20056;-81
2023/08/25 05:20:12;;;;;;;3.75;2.40;;;;;;;21.25;46.39;100392.50;5012077;28;20207;-81
2023/08/25 05:22:41;;;;;;;5.10;2.38;;;;;;;21.26;46.25;100399.81;5022631;28;20041;-81
2023/08/25 05:25:09;;;;;;;4.30;2.50;;;;;;;21.24;46.18;100398.28;5029799;28;20041;-80
2023/08/25 05:27:37;;;;;;;5.43;2.60;;;;;;;21.23;46.38;100388.22;5027771;28;20065;-81
2023/08/25 05:30:06;;;;;;;4.20;2.53;;;;;;;21.25;46.40;100397.22;5022513;28;20048;-81
2023/08/25 05:32:36;;;;;;;4.30;2.40;;;;;;;21.23;46.47;100400.22;5035094;28;20065;-81
2023/08/25 05:35:21;;;;;;;5.05;2.83;;;;;;;21.24;46.68;100406.63;5014557;28;20115;-80
2023/08/25 05:37:51;;;;;;;4.35;2.40;;;;;;;21.29;46.55;100415.22;5027648;28;20505;-79
2023/08/25 05:40:19;;;;;;;3.88;2.40;;;;;;;21.28;46.45;100407.94;5028068;28;20048;-80
2023/08/25 05:42:48;;;;;;;4.18;2.72;;;;;;;21.29;46.55;100406.88;5032655;28;20045;-80
2023/08/25 05:45:16;;;;;;;4.32;2.65;;;;;;;21.29;46.46;100402.16;5025494;28;21190;-80
2023/08/25 05:47:44;;;;;;;3.78;2.35;;;;;;;21.31;46.37;100404.72;5050166;28;20073;-80
2023/08/25 05:50:12;;;;;;;5.32;2.67;;;;;;;21.32;46.65;100400.88;5039858;28;20220;-80
2023/08/25 05:52:41;;;;;;;4.40;2.80;;;;;;;21.31;46.56;100390.81;5037868;28;20052;-80
2023/08/25 05:55:13;;;;;;;5.28;2.70;;;;;;;21.34;46.60;100394.03;5019691;28;20053;-81
2023/08/25 05:57:41;;;;;;;4.75;2.85;;;;;;;21.31;46.62;100396.38;5012717;28;20046;-82
2023/08/25 06:00:11;;;;;;;5.25;2.85;;;;;;;21.33;46.84;100381.19;5027577;28;20072;-80
2023/08/25 06:02:42;;;;;;;;;;;;;;;21.05;47.17;100369.41;5036676;28;20484;-79
2023/08/25 06:05:10;;;;;;;3.80;2.60;;;;;;;21.28;46.57;100369.81;5023429;28;20345;-81
2023/08/25 06:07:39;;;;;;;5.45;2.55;;;;;;;21.34;46.73;100359.78;5041000;28;20045;-81
2023/08/25 06:10:08;;;;;;;4.57;2.63;;;;;;;21.35;46.76;100358.72;5043728;28;20052;-81
2023/08/25 06:12:38;;;;;;;3.58;2.67;;;;;;;21.36;46.93;100350.13;5036428;28;20132;-81
2023/08/25 06:15:08;;;;;;;4.72;3.10;;;;;;;21.33;46.86;100355.28;5049910;28;20118;-81
2023/08/25 06:17:35;;;;;;;5.30;2.80;;;;;;;21.32;46.91;100342.44;5057525;28;20060;-79
2023/08/25 06:20:04;;;;;;;5.90;2.80;;;;;;;21.32;46.86;100342.44;5048046;28;20041;-81
2023/08/25 06:22:32;;;;;;;5.30;2.85;;;;;;;21.32;46.90;100342.44;5034580;28;20053;-81
2023/08/25 06:25:00;;;;;;;4.30;2.92;;;;;;;21.31;46.72;100347.13;5055593;28;20069;-82
2023/08/25 06:27:28;;;;;;;5.10;3.33;;;;;;;21.32;46.93;100343.28;5032930;28;20505;-81
2023/08/25 06:29:57;;;;;;;5.03;3.08;;;;;;;21.37;46.99;100350.97;5028177;28;20132;-81
2023/08/25 06:32:25;;;;;;;5.75;2.80;;;;;;;21.35;46.96;100362.34;5029334;28;20458;-81
2023/08/25 06:34:53;;;;;;;4.97;3.15;;;;;;;21.36;46.93;100372.38;5037289;28;20523;-80
2023/08/25 06:37:21;;;;;;;4.55;2.88;;;;;;;21.38;47.58;100370.25;5027859;28;20053;-82
2023/08/25 06:39:49;;;;;;;5.03;3.20;;;;;;;21.39;47.24;100383.09;5032067;28;20539;-80
2023/08/25 06:42:17;;;;;;;5.63;3.03;;;;;;;21.41;47.44;100402.38;5035301;28;20136;-80
2023/08/25 06:44:47;;;;;;;4.97;3.45;;;;;;;21.43;47.39;100414.16;5035733;28;20566;-81
2023/08/25 06:47:16;;;;;;;5.95;3.40;;;;;;;21.46;47.52;100410.91;5039163;28;20071;-81
2023/08/25 06:49:44;;;;;;;4.95;3.08;;;;;;;21.46;47.33;100411.78;5038369;28;20047;-81
2023/08/25 06:52:12;;;;;;;6.57;3.45;;;;;;;21.47;47.56;100407.91;5053956;28;20072;-81
2023/08/25 06:54:40;;;;;;;5.45;3.72;;;;;;;21.48;47.54;100386.50;5050108;28;20071;-80
2023/08/25 06:57:08;;;;;;;5.22;3.65;;;;;;;21.47;47.47;100374.50;5064233;28;20104;-81
2023/08/25 06:59:36;;;;;;;6.00;3.70;;;;;;;21.47;47.51;100362.53;5031021;28;20073;-79
2023/08/25 07:02:04;;;;;;;5.30;3.47;;;;;;;21.45;47.24;100364.66;5030494;28;20524;-81
2023/08/25 07:04:33;;;;;;;4.50;3.38;;;;;;;21.46;47.62;100367.22;5025267;28;20113;-81
2023/08/25 07:07:02;;;;;;;6.47;3.33;;;;;;;21.44;47.40;100358.22;5026859;28;20552;-81
2023/08/25 07:09:30;;;;;;;6.95;3.67;;;;;;;21.43;47.82;100350.97;5020169;28;20065;-81
2023/08/25 07:11:58;;;;;;;5.57;3.38;;;;;;;21.45;47.72;100356.31;5026592;28;20049;-82
2023/08/25 07:14:27;;;;;;;7.75;3.92;;;;;;;21.43;47.87;100337.06;5027955;28;20038;-80
2023/08/25 07:16:55;;;;;;;6.95;4.32;;;;;;;21.44;47.72;100352.66;5030782;28;20566;-80
2023/08/25 07:19:23;;;;;;;7.15;3.60;;;;;;;21.46;47.69;100405.34;5025501;28;20069;-81
2023/08/25 07:21:53;;;;;;;5.45;3.40;;;;;;;21.50;47.96;100474.31;5029931;28;20138;-79
2023/08/25 07:24:21;;;;;;;5.72;3.38;;;;;;;21.49;47.71;100513.50;5024676;28;20061;-80
2023/08/25 07:26:49;;;;;;;4.95;3.40;;;;;;;21.51;47.66;100537.31;5028311;28;20056;-79
2023/08/25 07:29:17;;;;;;;4.78;3.22;;;;;;;21.51;47.84;100537.31;5039654;28;20171;-78
2023/08/25 07:31:45;;;;;;;9.75;4.07;;;;;;;21.52;48.34;100454.59;5047996;28;20049;-81
2023/08/25 07:34:13;;;;;;;7.03;3.60;;;;;;;21.50;48.68;100453.97;5035619;28;20105;-81
2023/08/25 07:36:43;;;;;;;7.47;3.85;;;;;;;21.47;48.86;100427.41;5040705;28;20091;-80
2023/08/25 07:39:12;;;;;;;6.18;3.92;;;;;;;21.45;48.99;100390.56;5033430;28;20072;-80
2023/08/25 07:41:40;;;;;;;5.53;3.70;;;;;;;21.38;48.98;100383.31;5036935;28;20045;-80
2023/08/25 07:44:08;;;;;;;6.18;3.70;;;;;;;21.32;49.50;100440.72;5056036;28;20045;-80
2023/08/25 07:46:38;;;;;;;5.97;3.80;;;;;;;21.28;49.73;100505.34;5039482;28;20088;-80
2023/08/25 07:49:07;;;;;;;7.22;4.50;;;;;;;21.25;49.81;100525.25;5029157;28;20138;-80
2023/08/25 07:51:36;;;;;;;5.78;4.03;;;;;;;21.22;50.04;100506.19;5050682;28;20140;-80
2023/08/25 07:54:07;;;;;;;7.65;4.85;;;;;;;21.14;50.54;100457.16;5032416;28;20505;-79
2023/08/25 07:56:37;;;;;;;6.68;4.55;;;;;;;21.15;50.50;100444.97;5011733;28;20049;-80
2023/08/25 07:59:06;;;;;;;7.63;4.40;;;;;;;21.09;51.03;100513.47;5029151;28;20056;-81
2023/08/25 08:01:34;;;;;;;5.88;3.70;;;;;;;21.06;50.87;100522.22;5022913;28;20183;-80
2023/08/25 08:04:03;;;;;;;6.47;3.83;;;;;;;21.03;51.15;100455.84;5015055;28;20045;-80
2023/08/25 08:06:34;;;;;;;5.90;3.92;;;;;;;20.99;51.17;100407.28;5018940;28;20045;-81
2023/08/25 08:09:06;;;;;;;7.53;4.35;;;;;;;20.95;51.07;100394.84;5016531;28;20494;-81
2023/08/25 08:11:35;;;;;;;7.63;4.17;;;;;;;20.91;51.56;100431.69;5049452;28;20081;-81
2023/08/25 08:14:04;;;;;;;5.05;3.63;;;;;;;20.90;51.58;100469.75;5036154;28;20399;-81
2023/08/25 08:16:32;;;;;;;6.10;3.63;;;;;;;20.86;51.60;100520.47;5034000;28;20485;-83
2023/08/25 08:19:05;;;;;;;7.13;3.83;;;;;;;20.82;51.45;100545.06;5032329;28;20048;-83
2023/08/25 08:21:33;;;;;;;6.68;3.60;;;;;;;20.82;51.99;100519.16;5036663;28;20901;-83
2023/08/25 08:24:02;;;;;;;6.40;3.85;;;;;;;20.77;51.88;100492.84;5040724;28;20093;-83
2023/08/25 08:26:30;;;;;;;6.50;3.85;;;;;;;20.74;52.08;100475.72;5038048;28;20053;-82
2023/08/25 08:28:58;;;;;;;6.25;3.40;;;;;;;20.73;51.85;100499.88;5041770;28;20072;-83
2023/08/25 08:31:27;;;;;;;5.20;3.50;;;;;;;20.73;52.06;100507.38;5038854;28;20029;-83
2023/08/25 08:33:55;;;;;;;6.00;3.78;;;;;;;20.68;52.13;100482.13;5023333;28;20053;-84
2023/08/25 08:36:23;;;;;;;6.90;3.60;;;;;;;20.66;52.17;100484.25;5018829;28;20745;-82
2023/08/25 08:38:52;;;;;;;7.30;3.67;;;;;;;20.64;52.14;100506.72;5029592;28;20044;-82
2023/08/25 08:41:21;;;;;;;5.05;3.35;;;;;;;20.61;52.04;100476.53;5036861;28;20041;-83
2023/08/25 08:43:52;;;;;;;6.75;3.55;;;;;;;20.59;52.49;100417.53;5037314;28;20428;-83
2023/08/25 08:46:21;;;;;;;6.00;3.38;;;;;;;20.55;52.14;100435.63;5028995;28;20128;-85
2023/08/25 08:48:52;;;;;;;7.72;3.50;;;;;;;20.53;52.63;100454.44;5028713;28;20084;-84
2023/08/25 08:51:21;;;;;;;5.45;3.10;;;;;;;20.50;52.71;100435.41;5058444;28;20109;-81
2023/08/25 08:53:50;;;;;;;6.60;2.90;;;;;;;20.48;52.92;100434.75;5058486;28;20033;-82
2023/08/25 08:56:19;;;;;;;4.75;2.83;;;;;;;20.47;52.82;100418.28;5037341;28;20864;-80
2023/08/25 08:58:47;;;;;;;4.65;2.45;;;;;;;20.45;53.34;100406.56;5036181;28;20128;-82
2023/08/25 09:01:16;;;;;;;5.00;2.60;;;;;;;20.41;52.83;100406.09;5027910;28;20069;-82
2023/08/25 09:03:47;;;;;;;4.68;2.70;;;;;;;20.44;53.30;100424.28;5023824;28;20061;-84
2023/08/25 09:06:18;;;;;;;3.97;2.45;;;;;;;20.42;53.36;100429.19;5019382;28;20128;-82
2023/08/25 09:08:48;;;;;;;4.50;2.30;;;;;;;20.39;53.15;100433.25;5032745;28;20045;-79
2023/08/25 09:11:17;;;;;;;4.10;2.55;;;;;;;20.41;53.36;100442.22;5037892;28;20045;-80
2023/08/25 09:13:54;;;;;;;4.88;2.95;;;;;;;20.44;53.91;100460.44;5042618;28;20081;-82
2023/08/25 09:16:22;;;;;;;5.13;2.55;;;;;;;20.40;53.17;100466.38;5026365;28;20033;-81
2023/08/25 09:18:50;;;;;;;4.97;2.50;;;;;;;20.39;53.26;100467.44;5033270;28;20045;-80
2023/08/25 09:21:21;;;;;;;4.30;2.30;;;;;;;20.44;53.88;100477.97;5032464;28;20068;-80
2023/08/25 09:23:54;;;;;;;4.13;2.00;;;;;;;20.44;53.42;100465.97;5022747;28;20041;-80
2023/08/25 09:26:23;;;;;;;6.03;2.35;;;;;;;20.42;53.66;100452.28;5027773;28;20129;-80
2023/08/25 09:28:53;;;;;;;4.10;2.20;;;;;;;20.45;54.12;100457.41;5034413;28;20076;-80
2023/08/25 09:31:23;;;;;;;3.15;1.90;;;;;;;20.47;53.96;100443.31;5034080;28;20582;-80
2023/08/25 09:33:52;;;;;;;3.47;1.80;;;;;;;20.49;54.03;100449.53;5050274;28;20099;-81
2023/08/25 09:36:22;;;;;;;4.07;1.90;;;;;;;20.52;54.13;100443.56;5040468;28;20049;-82
2023/08/25 09:38:50;;;;;;;3.35;1.92;;;;;;;20.51;53.67;100431.59;5040150;28;20044;-83
2023/08/25 09:41:24;;;;;;;2.97;1.90;;;;;;;20.54;53.61;100425.56;5040484;28;20124;-81
2023/08/25 09:43:57;;;;;;;3.63;2.10;;;;;;;20.58;54.02;100423.25;5026639;28;20751;-82
2023/08/25 09:46:29;;;;;;;;;;;;;;;20.27;54.51;100437.69;5034882;28;20045;-82
2023/08/25 09:49:04;;;;;;;4.32;2.10;;;;;;;20.55;54.14;100443.13;5035087;28;19992;-82
2023/08/25 09:51:37;;;;;;;4.53;2.70;;;;;;;20.58;54.51;100448.28;5041647;28;20060;-82
2023/08/25 09:54:08;;;;;;;4.18;2.55;;;;;;;20.58;53.88;100460.25;5040541;28;20048;-81
2023/08/25 09:56:38;;;;;;;5.03;2.70;;;;;;;20.59;54.05;100472.25;5040988;28;20106;-81
2023/08/25 09:59:08;;;;;;;5.68;3.05;;;;;;;20.60;54.17;100504.56;5057583;28;20556;-82
2023/08/25 10:01:38;;;;;;;4.60;3.05;;;;;;;20.61;54.27;100525.75;5039454;28;20088;-80
2023/08/25 10:04:07;;;;;;;4.72;3.13;;;;;;;20.61;54.01;100539.66;5012927;28;20057;-81
2023/08/25 10:06:39;;;;;;;4.35;2.72;;;;;;;20.64;54.28;100551.19;5022970;28;20045;-82
2023/08/25 10:09:08;;;;;;;5.17;2.73;;;;;;;20.61;53.98;100550.78;5030433;28;20045;-83
2023/08/25 10:11:40;;;;;;;6.50;2.78;;;;;;;20.64;54.04;100551.19;5030232;28;20045;-83
2023/08/25 10:14:10;;;;;;;6.80;2.90;;;;;;;20.62;54.22;100553.31;5031945;28;20111;-82
2023/08/25 10:16:41;;;;;;;4.53;2.63;;;;;;;20.64;54.20;100547.56;5039351;28;20052;-82
2023/08/25 10:19:14;;;;;;;5.40;2.33;;;;;;;20.62;54.19;100544.13;5040896;28;20049;-81
2023/08/25 10:21:45;;;;;;;4.18;2.25;;;;;;;20.61;54.16;100554.38;5036585;28;20059;-81
2023/08/25 10:24:15;;;;;;;3.90;2.30;;;;;;;20.58;54.00;100537.25;5029081;28;20050;-82
2023/08/25 10:26:45;;;;;;;4.75;2.30;;;;;;;20.55;53.90;100495.94;5026178;28;20056;-84
2023/08/25 10:29:17;;;;;;;5.07;2.65;;;;;;;20.54;53.78;100492.31;5043115;28;20055;-84
2023/08/25 10:31:49;;;;;;;4.43;2.50;;;;;;;20.49;54.68;100497.63;5038623;28;20212;-81
2023/08/25 10:34:41;;;;;;;6.13;2.90;;;;;;;20.46;55.23;100523.06;5066688;28;20505;-82
2023/08/25 10:37:12;;;;;;;4.38;2.47;;;;;;;20.45;54.47;100551.09;5029768;28;20049;-84
2023/08/25 10:39:47;;;;;;;4.60;2.92;;;;;;;20.47;55.16;100554.50;5043010;28;20149;-81
2023/08/25 10:42:20;;;;;;;4.65;2.58;;;;;;;20.44;54.59;100541.03;5046983;28;20076;-82
2023/08/25 10:44:54;;;;;;;4.80;2.83;;;;;;;20.40;54.59;100540.56;5018033;28;20080;-82
2023/08/25 10:47:22;;;;;;;4.93;2.97;;;;;;;20.34;54.21;100521.97;5043799;28;20090;-81
2023/08/25 10:49:54;;;;;;;4.18;2.75;;;;;;;20.31;53.89;100502.91;5018886;28;20489;-81
2023/08/25 10:52:23;;;;;;;4.32;2.63;;;;;;;20.26;53.53;100484.09;5030423;28;20049;-81
2023/08/25 10:54:53;;;;;;;5.30;3.20;;;;;;;20.20;53.81;100470.16;5032979;28;20687;-81
2023/08/25 10:57:39;;;;;;;6.72;3.28;;;;;;;20.13;53.88;100464.56;5032112;28;20105;-82
2023/08/25 11:00:27;;;;;;;5.13;2.90;;;;;;;20.06;54.35;100472.00;5031687;28;20044;-82
2023/08/25 11:02:55;;;;;;;4.15;2.78;;;;;;;19.99;53.74;100473.91;5060619;28;20047;-81
2023/08/25 11:05:44;;;;;;;4.97;2.90;;;;;;;19.94;54.19;100455.09;5038196;28;20036;-80
2023/08/25 11:08:29;;;;;;;4.05;2.13;;;;;;;19.87;54.40;100456.91;5042530;28;20053;-81
2023/08/25 11:11:12;;;;;;;4.97;2.50;;;;;;;19.83;54.47;100435.31;5030180;28;20056;-81
2023/08/25 11:13:41;;;;;;;4.90;2.33;;;;;;;19.78;53.83;100454.53;5055742;28;20049;-83
2023/08/25 11:16:10;;;;;;;4.40;2.30;;;;;;;19.74;54.21;100451.28;5034184;28;20076;-82
2023/08/25 11:18:42;;;;;;;4.93;2.50;;;;;;;19.73;55.15;100451.47;5045969;28;20041;-80
2023/08/25 11:21:11;;;;;;;4.78;2.42;;;;;;;19.65;54.71;100445.03;5026291;28;20064;-80
2023/08/25 11:23:43;;;;;;;5.82;2.53;;;;;;;19.69;54.96;100445.50;5016054;28;20107;-82
2023/08/25 11:26:16;;;;;;;4.45;2.40;;;;;;;19.67;55.54;100446.75;5042811;28;20048;-83
2023/08/25 11:28:47;;;;;;;3.83;2.38;;;;;;;19.65;55.40;100452.50;5019433;28;20074;-84
2023/08/25 11:31:15;;;;;;;4.63;2.70;;;;;;;19.65;55.29;100461.69;5048335;28;20080;-86
2023/08/25 11:33:44;;;;;;;4.55;2.55;;;;;;;19.68;55.78;100459.59;5032336;28;20040;-86
2023/08/25 11:36:15;;;;;;;4.88;2.47;;;;;;;19.72;55.68;100475.63;5032390;28;20064;-84
2023/08/25 11:38:50;;;;;;;5.13;2.40;;;;;;;19.74;56.72;100469.88;5032619;28;20040;-84